Terminal Aerodrome Forecast
Issued by NWS

Home | Current Version | Previous Version | Text Only | Print | Product List | Glossary On
Versions: 1 2 3 4 5 6 7 8 9 10 11 12 13 14 15 16 17
000
FTUS46 KSEW 011120
TAFPAE
TAF
KPAE 011120Z 0112/0212 15006KT P6SM FEW025 SCT040 BKN070
      TEMPO 0112/0116 -SHRA SCT025 BKN040 OVC070
     FM011600 18010KT P6SM SCT025 OVC050
     FM011900 18014G20KT P6SM -SHRA SCT025 OVC050
     FM020200 17010KT P6SM -SHRA BKN050 OVC090=

USA.gov is the U.S. government's official web portal to all federal, state and local government web resources and services.